Tarrytown, New York
Current Conditions -  °F | °C
As of 2:56 AM on Friday 28 Nov 2014 (Local Time) from KHPN Reporting Station
Clear Clear  
Wind Chill: -5°   Ceiling: Unl
Heat Index: -1°   Visibility: 10mi
Dew Point: -5°   Wind: 8mph
Humidity: 75%   Direction: 320°NW
Pressure: 30.04"   Gusts: NA
Location:  41.08°N, 73.86°W
Report Text: KHPN 280756Z 32007KT 10SM CLR M01/M05 A3004 RMK AO2 SLP180 T10111050
Loading
Personal Weather Stations






























Interactive Weather Map New forecast layout! Learn more

10-Day Weather Forecast

Advertisements
Track Severe Weather on mobile